createdAt,value
2023-02-08T00:00:51.708Z,101924.53
2023-02-08T00:03:18.683Z,101911.50
2023-02-08T00:05:45.601Z,101914.16
2023-02-08T00:08:12.622Z,101913.38
2023-02-08T00:10:39.869Z,101914.31
2023-02-08T00:13:07.104Z,101910.00
2023-02-08T00:15:34.132Z,101910.13
2023-02-08T00:18:01.149Z,101909.34
2023-02-08T00:20:28.203Z,101905.03
2023-02-08T00:22:55.132Z,101906.00
2023-02-08T00:25:22.024Z,101907.75
2023-02-08T00:27:49.024Z,101902.69
2023-02-08T00:30:16.206Z,101909.78
2023-02-08T00:32:43.146Z,101918.53
2023-02-08T00:35:10.089Z,101909.88
2023-02-08T00:37:37.043Z,101917.75
2023-02-08T00:40:05.819Z,101921.28
2023-02-08T00:42:33.352Z,101918.75
2023-02-08T00:45:00.557Z,101927.56
2023-02-08T00:47:27.506Z,101916.25
2023-02-08T00:49:54.521Z,101918.94
2023-02-08T00:52:21.702Z,101918.16
2023-02-08T00:54:48.674Z,101919.09
2023-02-08T00:57:15.903Z,101912.91
2023-02-08T00:59:42.952Z,101906.03
2023-02-08T01:02:10.500Z,101908.59
2023-02-08T01:04:38.020Z,101906.88
2023-02-08T01:07:05.933Z,101903.38
2023-02-08T01:09:34.120Z,101903.38
2023-02-08T01:12:01.392Z,101904.13
2023-02-08T01:14:28.419Z,101906.75
2023-02-08T01:16:55.700Z,101910.31
2023-02-08T01:19:22.721Z,101909.38
2023-02-08T01:21:49.721Z,101909.44
2023-02-08T01:24:17.194Z,101913.84
2023-02-08T01:26:44.334Z,101906.88
2023-02-08T01:29:11.497Z,101906.88
2023-02-08T01:31:41.639Z,101907.75
2023-02-08T01:34:09.833Z,101902.50
2023-02-08T01:36:38.612Z,101900.75
2023-02-08T01:39:08.527Z,101898.13
2023-02-08T01:41:40.004Z,101888.53
2023-02-08T01:44:13.712Z,101890.25
2023-02-08T01:46:45.638Z,101889.34
2023-02-08T01:49:23.180Z,101872.69
2023-02-08T01:52:10.214Z,101881.41
2023-02-08T01:54:52.637Z,101874.38
2023-02-08T01:57:22.055Z,101873.47
2023-02-08T01:59:56.660Z,101872.59
2023-02-08T02:02:25.362Z,101880.41
2023-02-08T02:04:54.648Z,101868.22
2023-02-08T02:07:26.251Z,101873.34
2023-02-08T02:10:14.209Z,101873.34
2023-02-08T02:12:42.183Z,101866.31
2023-02-08T02:15:10.460Z,101864.63
2023-02-08T02:17:39.103Z,101862.84
2023-02-08T02:20:30.625Z,101853.22
2023-02-08T02:23:41.199Z,101854.91
2023-02-08T02:26:54.520Z,101850.53
2023-02-08T02:29:40.171Z,101852.28
2023-02-08T02:32:44.862Z,101839.19
2023-02-08T02:35:39.752Z,101846.13
2023-02-08T02:38:50.864Z,101839.13
2023-02-08T02:42:16.157Z,101850.38
2023-02-08T02:45:25.657Z,101841.66
2023-02-08T02:48:16.974Z,101840.72
2023-02-08T02:50:50.903Z,101845.97
2023-02-08T02:53:54.734Z,101836.50
2023-02-08T02:56:33.748Z,101840.88
2023-02-08T02:59:06.652Z,101838.34
2023-02-08T03:01:34.967Z,101845.34
2023-02-08T03:04:18.176Z,101847.13
2023-02-08T03:07:15.788Z,101842.00
2023-02-08T03:10:17.815Z,101844.69
2023-02-08T03:13:17.364Z,101840.38
2023-02-08T03:16:25.064Z,101837.03
2023-02-08T03:19:07.486Z,101841.44
2023-02-08T03:21:55.071Z,101846.75
2023-02-08T03:24:58.535Z,101840.75
2023-02-08T03:27:30.918Z,101841.69
2023-02-08T03:30:29.708Z,101843.47
2023-02-08T03:33:11.864Z,101850.56
2023-02-08T03:35:59.479Z,101850.63
2023-02-08T03:38:42.662Z,101855.91
2023-02-08T03:41:16.477Z,101841.13
2023-02-08T03:44:00.242Z,101851.59
2023-02-08T03:46:43.619Z,101848.97
2023-02-08T03:49:24.181Z,101836.88
2023-02-08T03:51:54.496Z,101841.28
2023-02-08T03:54:26.430Z,101856.16
2023-02-08T03:57:10.651Z,101851.88
2023-02-08T03:59:42.019Z,101858.03
2023-02-08T04:02:17.921Z,101858.97
2023-02-08T04:04:49.014Z,101859.88
2023-02-08T04:07:18.981Z,101851.19
2023-02-08T04:09:46.387Z,101846.78
2023-02-08T04:12:13.423Z,101843.25
2023-02-08T04:14:40.346Z,101849.31
2023-02-08T04:17:07.468Z,101846.78
2023-02-08T04:19:34.430Z,101838.94
2023-02-08T04:22:01.578Z,101845.94
2023-02-08T04:24:28.537Z,101838.06
2023-02-08T04:26:55.443Z,101836.31
2023-02-08T04:29:22.603Z,101835.47
2023-02-08T04:31:49.517Z,101829.38
2023-02-08T04:34:16.534Z,101826.75
2023-02-08T04:36:43.520Z,101830.28
2023-02-08T04:39:10.555Z,101830.28
2023-02-08T04:41:37.576Z,101825.94
2023-02-08T04:44:04.503Z,101835.56
2023-02-08T04:46:31.459Z,101834.72
2023-02-08T04:48:59.104Z,101831.19
2023-02-08T04:51:26.093Z,101830.34
2023-02-08T04:53:52.999Z,101829.47
2023-02-08T04:56:20.006Z,101833.03
2023-02-08T04:58:48.352Z,101836.56
2023-02-08T05:01:16.475Z,101836.56
2023-02-08T05:03:43.486Z,101840.13
2023-02-08T05:06:10.546Z,101821.91
2023-02-08T05:08:37.624Z,101828.91
2023-02-08T05:11:04.766Z,101817.56
2023-02-08T05:13:31.652Z,101824.66
2023-02-08T05:16:00.884Z,101827.34
2023-02-08T05:18:28.695Z,101831.75
2023-02-08T05:21:01.055Z,101826.56
2023-02-08T05:23:28.325Z,101833.63
2023-02-08T05:25:55.532Z,101830.16
2023-02-08T05:28:22.807Z,101830.16
2023-02-08T05:30:49.929Z,101833.78
2023-02-08T05:33:19.676Z,101838.16
2023-02-08T05:35:46.852Z,101835.66
2023-02-08T05:38:13.993Z,101837.50
2023-02-08T05:40:41.146Z,101828.88
2023-02-08T05:43:08.242Z,101827.16
2023-02-08T05:45:35.192Z,101828.91
2023-02-08T05:48:02.108Z,101824.69
2023-02-08T05:50:29.034Z,101826.53
2023-02-08T05:52:55.932Z,101829.19
2023-02-08T05:55:22.883Z,101820.53
2023-02-08T05:57:49.826Z,101827.56
2023-02-08T06:00:17.182Z,101827.63
2023-02-08T06:02:44.159Z,101826.81
2023-02-08T06:05:11.360Z,101833.03
2023-02-08T06:07:38.386Z,101834.88
2023-02-08T06:10:05.894Z,101838.44
2023-02-08T06:12:32.802Z,101841.09
2023-02-08T06:14:59.708Z,101838.53
2023-02-08T06:17:26.625Z,101839.53
2023-02-08T06:19:53.608Z,101839.53
2023-02-08T06:22:20.520Z,101844.84
2023-02-08T06:24:48.605Z,101844.84
2023-02-08T06:27:15.514Z,101841.47
2023-02-08T06:29:42.460Z,101851.09
2023-02-08T06:32:09.513Z,101846.78
2023-02-08T06:34:36.620Z,101844.16
2023-02-08T06:37:05.709Z,101844.22
2023-02-08T06:39:32.909Z,101839.03
2023-02-08T06:41:59.839Z,101841.63
2023-02-08T06:44:26.881Z,101850.44
2023-02-08T06:46:53.976Z,101855.72
2023-02-08T06:49:20.948Z,101854.88
2023-02-08T06:51:47.894Z,101857.50
2023-02-08T06:54:15.605Z,101849.72
2023-02-08T06:56:43.107Z,101856.66
2023-02-08T06:59:10.071Z,101847.94
2023-02-08T07:01:36.988Z,101849.75
2023-02-08T07:04:04.043Z,101853.19
2023-02-08T07:06:31.317Z,101857.56
2023-02-08T07:08:58.249Z,101852.34
2023-02-08T07:11:25.200Z,101865.34
2023-02-08T07:13:52.596Z,101853.19
2023-02-08T07:16:20.667Z,101862.81
2023-02-08T07:18:48.055Z,101859.34
2023-02-08T07:21:15.248Z,101866.28
2023-02-08T07:23:42.789Z,101864.56
2023-02-08T07:26:12.441Z,101860.19
2023-02-08T07:28:40.060Z,101862.84
2023-02-08T07:31:09.823Z,101855.00
2023-02-08T07:33:37.529Z,101862.84
2023-02-08T07:36:05.352Z,101865.41
2023-02-08T07:38:36.075Z,101858.47
2023-02-08T07:41:14.130Z,101854.09
2023-02-08T07:43:42.082Z,101856.59
2023-02-08T07:46:17.337Z,101864.38
2023-02-08T07:48:44.983Z,101846.84
2023-02-08T07:51:12.910Z,101846.72
2023-02-08T07:53:40.564Z,101852.69
2023-02-08T07:56:07.913Z,101844.56
2023-02-08T07:58:34.832Z,101847.84
2023-02-08T08:01:06.998Z,101844.97
2023-02-08T08:03:43.032Z,101844.59
2023-02-08T08:06:10.007Z,101846.06
2023-02-08T08:08:36.923Z,101851.88
2023-02-08T08:11:04.026Z,101854.13
2023-02-08T08:13:31.048Z,101850.19
2023-02-08T08:15:58.410Z,101842.81
2023-02-08T08:18:25.352Z,101839.88
2023-02-08T08:20:52.255Z,101843.69
2023-02-08T08:23:19.840Z,101853.00
2023-02-08T08:25:46.894Z,101847.44
2023-02-08T08:28:13.932Z,101846.06
2023-02-08T08:30:44.633Z,101849.13
2023-02-08T08:33:13.904Z,101846.06
2023-02-08T08:35:41.182Z,101843.06
2023-02-08T08:38:08.099Z,101851.44
2023-02-08T08:40:35.023Z,101849.38
2023-02-08T08:43:02.216Z,101846.31
2023-02-08T08:45:29.329Z,101846.78
2023-02-08T08:47:56.355Z,101852.59
2023-02-08T08:50:23.363Z,101842.63
2023-02-08T08:52:50.296Z,101844.03
2023-02-08T08:55:17.416Z,101843.72
2023-02-08T08:57:44.437Z,101842.50
2023-02-08T09:00:12.434Z,101850.06
2023-02-08T09:02:39.418Z,101850.69
2023-02-08T09:05:07.984Z,101849.47
2023-02-08T09:07:35.289Z,101851.69
2023-02-08T09:10:02.266Z,101848.81
2023-02-08T09:12:29.359Z,101848.50
2023-02-08T09:14:56.301Z,101853.44
2023-02-08T09:17:23.930Z,101845.25
2023-02-08T09:19:50.976Z,101851.88
2023-02-08T09:22:18.775Z,101844.53
2023-02-08T09:24:45.796Z,101846.06
2023-02-08T09:27:12.731Z,101842.34
2023-02-08T09:29:39.666Z,101849.06
2023-02-08T09:32:08.329Z,101841.78
2023-02-08T09:34:35.968Z,101845.78
2023-02-08T09:37:02.920Z,101847.31
2023-02-08T09:39:29.992Z,101851.41
2023-02-08T09:42:25.143Z,101851.00
2023-02-08T09:45:07.110Z,101847.09
2023-02-08T09:47:44.312Z,101841.41
2023-02-08T09:50:27.981Z,101849.81
2023-02-08T09:53:11.786Z,101846.00
2023-02-08T09:55:48.317Z,101846.50
2023-02-08T09:58:34.230Z,101851.25
2023-02-08T10:01:02.733Z,101849.22
2023-02-08T10:03:41.444Z,101836.44
2023-02-08T10:06:14.513Z,101830.84
2023-02-08T10:08:44.084Z,101820.13
2023-02-08T10:11:37.410Z,101823.19
2023-02-08T10:14:46.832Z,101815.69
2023-02-08T10:17:47.407Z,101823.97
2023-02-08T10:20:25.485Z,101816.66
2023-02-08T10:23:31.338Z,101812.53
2023-02-08T10:26:08.017Z,101808.78
2023-02-08T10:29:24.583Z,101818.75
2023-02-08T10:32:15.637Z,101808.53
2023-02-08T10:35:19.614Z,101806.47
2023-02-08T10:37:46.871Z,101813.25
2023-02-08T10:40:25.737Z,101811.28
2023-02-08T10:43:36.512Z,101805.44
2023-02-08T10:46:44.772Z,101804.84
2023-02-08T10:49:29.427Z,101798.19
2023-02-08T10:51:56.337Z,101798.56
2023-02-08T10:54:23.351Z,101798.28
2023-02-08T10:57:04.835Z,101784.50
2023-02-08T10:59:54.664Z,101778.63
2023-02-08T11:02:26.683Z,101788.63
2023-02-08T11:05:10.595Z,101779.34
2023-02-08T11:07:38.059Z,101782.44
2023-02-08T11:10:24.968Z,101785.31
2023-02-08T11:13:14.457Z,101778.63
2023-02-08T11:15:53.363Z,101780.53
2023-02-08T11:18:25.152Z,101769.38
2023-02-08T11:20:57.348Z,101771.50
2023-02-08T11:23:31.772Z,101759.34
2023-02-08T11:26:27.232Z,101758.75
2023-02-08T11:29:27.053Z,101745.88
2023-02-08T11:32:06.312Z,101760.25
2023-02-08T11:34:34.523Z,101745.53
2023-02-08T11:37:28.548Z,101745.97
2023-02-08T11:40:00.637Z,101740.78
2023-02-08T11:42:40.831Z,101748.16
2023-02-08T11:45:16.353Z,101745.94
2023-02-08T11:47:48.063Z,101734.94
2023-02-08T11:50:37.672Z,101736.84
2023-02-08T11:53:27.656Z,101729.31
2023-02-08T11:56:18.069Z,101734.78
2023-02-08T11:59:02.914Z,101723.63
2023-02-08T12:01:39.900Z,101730.16
2023-02-08T12:04:17.912Z,101733.22
2023-02-08T12:07:10.353Z,101732.56
2023-02-08T12:10:06.449Z,101719.47
2023-02-08T12:12:59.217Z,101726.97
2023-02-08T12:16:00.619Z,101729.03
2023-02-08T12:18:55.872Z,101706.69
2023-02-08T12:21:35.671Z,101714.28
2023-02-08T12:24:32.678Z,101713.81
2023-02-08T12:27:20.417Z,101706.88
2023-02-08T12:30:18.956Z,101701.34
2023-02-08T12:33:17.059Z,101699.84
2023-02-08T12:36:20.081Z,101695.53
2023-02-08T12:39:20.921Z,101688.91
2023-02-08T12:42:13.984Z,101681.31
2023-02-08T12:45:40.913Z,101678.78
2023-02-08T12:48:57.784Z,101668.06
2023-02-08T12:52:01.437Z,101676.13
2023-02-08T12:54:38.476Z,101671.91
2023-02-08T12:57:10.656Z,101669.50
2023-02-08T13:00:03.348Z,101666.94
2023-02-08T13:02:44.478Z,101662.13
2023-02-08T13:05:21.214Z,101662.00
2023-02-08T13:07:55.164Z,101656.78
2023-02-08T13:10:53.323Z,101649.03
2023-02-08T13:13:28.742Z,101645.53
2023-02-08T13:16:09.454Z,101638.38
2023-02-08T13:19:26.391Z,101636.06
2023-02-08T13:21:54.920Z,101635.81
2023-02-08T13:24:38.547Z,101632.25
2023-02-08T13:27:09.064Z,101628.38
2023-02-08T13:29:37.795Z,101632.94
2023-02-08T13:32:31.397Z,101619.84
2023-02-08T13:35:11.310Z,101609.53
2023-02-08T13:37:38.713Z,101607.94
2023-02-08T13:40:28.769Z,101610.81
2023-02-08T13:43:09.156Z,101608.47
2023-02-08T13:45:43.926Z,101610.34
2023-02-08T13:48:16.569Z,101600.59
2023-02-08T13:50:54.112Z,101605.69
2023-02-08T13:53:39.281Z,101597.31
2023-02-08T13:56:11.195Z,101598.59
2023-02-08T13:58:50.273Z,101596.31
2023-02-08T14:01:30.290Z,101604.47
2023-02-08T14:04:09.852Z,101590.75
2023-02-08T14:06:45.333Z,101593.56
2023-02-08T14:09:32.955Z,101592.28
2023-02-08T14:12:21.517Z,101587.69
2023-02-08T14:15:14.348Z,101587.53
2023-02-08T14:17:50.399Z,101594.97
2023-02-08T14:20:39.805Z,101591.03
2023-02-08T14:23:40.731Z,101585.13
2023-02-08T14:26:20.646Z,101583.16
2023-02-08T14:28:53.836Z,101581.19
2023-02-08T14:31:22.657Z,101577.22
2023-02-08T14:33:56.435Z,101582.84
2023-02-08T14:36:34.686Z,101576.63
2023-02-08T14:39:28.995Z,101572.56
2023-02-08T14:42:08.428Z,101568.38
2023-02-08T14:44:38.076Z,101564.25
2023-02-08T14:47:11.950Z,101567.22
2023-02-08T14:49:43.303Z,101563.41
2023-02-08T14:52:24.434Z,101565.03
2023-02-08T14:55:07.506Z,101564.44
2023-02-08T14:57:36.740Z,101555.59
2023-02-08T15:00:27.170Z,101561.88
2023-02-08T15:02:54.635Z,101550.41
2023-02-08T15:05:32.382Z,101549.47
2023-02-08T15:08:01.876Z,101532.69
2023-02-08T15:10:30.417Z,101546.78
2023-02-08T15:13:03.801Z,101538.13
2023-02-08T15:15:42.747Z,101537.16
2023-02-08T15:18:32.073Z,101533.69
2023-02-08T15:21:15.219Z,101532.72
2023-02-08T15:23:42.133Z,101530.97
2023-02-08T15:26:23.130Z,101528.81
2023-02-08T15:28:50.002Z,101532.69
2023-02-08T15:31:35.983Z,101541.22
2023-02-08T15:34:03.182Z,101548.44
2023-02-08T15:36:37.233Z,101541.44
2023-02-08T15:39:33.859Z,101536.63
2023-02-08T15:42:01.878Z,101545.81
2023-02-08T15:44:34.781Z,101533.75
2023-02-08T15:47:12.137Z,101533.94
2023-02-08T15:49:46.040Z,101548.69
2023-02-08T15:52:28.882Z,101547.31
2023-02-08T15:54:56.069Z,101544.00
2023-02-08T15:57:35.834Z,101541.53
2023-02-08T16:00:13.153Z,101529.50
2023-02-08T16:02:41.730Z,101529.47
2023-02-08T16:05:26.199Z,101540.63
2023-02-08T16:07:54.158Z,101530.50
2023-02-08T16:10:46.460Z,101538.47
2023-02-08T16:13:24.447Z,101534.34
2023-02-08T16:16:15.531Z,101532.41
2023-02-08T16:18:50.186Z,101532.13
2023-02-08T16:21:38.243Z,101535.63
2023-02-08T16:24:05.390Z,101535.34
2023-02-08T16:26:56.716Z,101531.31
2023-02-08T16:29:35.841Z,101541.22
2023-02-08T16:32:20.122Z,101536.84
2023-02-08T16:34:47.629Z,101543.16
2023-02-08T16:37:32.486Z,101546.78
2023-02-08T16:40:04.024Z,101543.25
2023-02-08T16:42:42.563Z,101543.19
2023-02-08T16:45:09.605Z,101551.00
2023-02-08T16:48:00.142Z,101548.31
2023-02-08T16:50:33.994Z,101546.41
2023-02-08T16:53:03.669Z,101542.69
2023-02-08T16:55:33.555Z,101545.16
2023-02-08T16:58:00.593Z,101548.31
2023-02-08T17:00:35.528Z,101537.53
2023-02-08T17:03:02.758Z,101539.75
2023-02-08T17:05:35.114Z,101536.91
2023-02-08T17:08:09.839Z,101538.47
2023-02-08T17:10:36.960Z,101540.78
2023-02-08T17:13:19.377Z,101540.47
2023-02-08T17:15:49.533Z,101531.38
2023-02-08T17:18:16.922Z,101533.66
2023-02-08T17:20:44.492Z,101536.72
2023-02-08T17:23:12.612Z,101536.28
2023-02-08T17:25:39.727Z,101548.91
2023-02-08T17:28:13.926Z,101550.25
2023-02-08T17:30:44.054Z,101551.59
2023-02-08T17:33:17.742Z,101548.50
2023-02-08T17:35:51.415Z,101552.50
2023-02-08T17:38:20.752Z,101548.34
2023-02-08T17:40:48.368Z,101547.91
2023-02-08T17:43:15.546Z,101544.69
2023-02-08T17:45:44.828Z,101556.41
2023-02-08T17:48:15.649Z,101554.88
2023-02-08T17:50:47.803Z,101545.56
2023-02-08T17:53:15.434Z,101552.06
2023-02-08T17:55:46.886Z,101550.59
2023-02-08T17:58:14.023Z,101544.75
2023-02-08T18:00:41.289Z,101550.28
2023-02-08T18:03:08.305Z,101547.13
2023-02-08T18:05:35.324Z,101546.44
2023-02-08T18:08:02.467Z,101548.50
2023-02-08T18:10:29.446Z,101544.47
2023-02-08T18:12:56.411Z,101542.13
2023-02-08T18:15:24.132Z,101545.88
2023-02-08T18:17:51.071Z,101545.31
2023-02-08T18:20:18.913Z,101542.97
2023-02-08T18:22:46.038Z,101538.00
2023-02-08T18:25:15.853Z,101547.94
2023-02-08T18:27:43.009Z,101549.94
2023-02-08T18:30:11.800Z,101551.97
2023-02-08T18:32:39.443Z,101555.66
2023-02-08T18:35:07.848Z,101566.34
2023-02-08T18:37:36.616Z,101564.81
2023-02-08T18:40:06.641Z,101567.63
2023-02-08T18:42:35.890Z,101570.47
2023-02-08T18:45:04.603Z,101568.84
2023-02-08T18:47:31.623Z,101570.72
2023-02-08T18:49:58.674Z,101574.34
2023-02-08T18:52:25.889Z,101580.56
2023-02-08T18:54:53.428Z,101575.50
2023-02-08T18:57:20.613Z,101575.59
2023-02-08T18:59:47.751Z,101578.28
2023-02-08T19:02:21.182Z,101578.38
2023-02-08T19:04:48.455Z,101569.75
2023-02-08T19:07:16.134Z,101564.66
2023-02-08T19:09:43.919Z,101570.00
2023-02-08T19:12:15.154Z,101565.78
2023-02-08T19:14:43.382Z,101561.53
2023-02-08T19:17:11.790Z,101548.56
2023-02-08T19:19:40.011Z,101554.03
2023-02-08T19:22:06.931Z,101562.81
2023-02-08T19:24:33.890Z,101562.16
2023-02-08T19:27:00.875Z,101559.63
2023-02-08T19:29:27.894Z,101551.91
2023-02-08T19:31:57.800Z,101557.34
2023-02-08T19:34:25.368Z,101551.31
2023-02-08T19:36:54.462Z,101557.59
2023-02-08T19:39:26.477Z,101558.63
2023-02-08T19:41:54.577Z,101557.09
2023-02-08T19:44:22.697Z,101559.03
2023-02-08T19:46:55.019Z,101553.97
2023-02-08T19:49:25.301Z,101555.84
2023-02-08T19:51:52.711Z,101554.31
2023-02-08T19:54:20.361Z,101554.41
2023-02-08T19:56:50.132Z,101564.22
2023-02-08T19:59:27.432Z,101557.38
2023-02-08T20:01:54.843Z,101557.47
2023-02-08T20:04:22.756Z,101554.00
2023-02-08T20:06:53.709Z,101555.09
2023-02-08T20:09:21.455Z,101560.34
2023-02-08T20:11:57.129Z,101563.16
2023-02-08T20:14:26.658Z,101554.56
2023-02-08T20:16:53.873Z,101554.56
2023-02-08T20:19:20.992Z,101561.69
2023-02-08T20:21:48.094Z,101558.28
2023-02-08T20:24:15.697Z,101561.84
2023-02-08T20:26:46.208Z,101559.31
2023-02-08T20:29:14.645Z,101563.81
2023-02-08T20:31:45.238Z,101564.91
2023-02-08T20:34:15.688Z,101568.47
2023-02-08T20:37:05.344Z,101567.63
2023-02-08T20:39:33.262Z,101574.75
2023-02-08T20:42:00.205Z,101572.28
2023-02-08T20:44:28.342Z,101568.03
2023-02-08T20:46:57.820Z,101568.19
2023-02-08T20:49:26.411Z,101572.69
2023-02-08T20:51:54.458Z,101553.66
2023-02-08T20:54:24.338Z,101561.56
2023-02-08T20:56:53.643Z,101556.59
2023-02-08T20:59:21.051Z,101557.50
2023-02-08T21:01:48.330Z,101557.59
2023-02-08T21:04:16.940Z,101555.16
2023-02-08T21:06:46.085Z,101556.97
2023-02-08T21:09:15.945Z,101554.53
2023-02-08T21:11:44.456Z,101561.66
2023-02-08T21:14:18.410Z,101557.34
2023-02-08T21:16:55.768Z,101554.84
2023-02-08T21:19:24.600Z,101549.78
2023-02-08T21:21:58.082Z,101545.53
2023-02-08T21:24:26.391Z,101546.47
2023-02-08T21:26:56.040Z,101545.72
2023-02-08T21:29:23.776Z,101536.22
2023-02-08T21:31:53.532Z,101537.94
2023-02-08T21:34:21.321Z,101524.03
2023-02-08T21:36:48.829Z,101513.69
2023-02-08T21:39:15.813Z,101513.78
2023-02-08T21:41:42.904Z,101514.69
2023-02-08T21:44:11.176Z,101503.34
2023-02-08T21:46:38.260Z,101509.53
2023-02-08T21:49:23.767Z,101512.34
2023-02-08T21:52:09.684Z,101505.41
2023-02-08T21:54:42.624Z,101494.91
2023-02-08T21:57:29.491Z,101491.50
2023-02-08T22:00:01.363Z,101494.97
2023-02-08T22:02:30.682Z,101491.59
2023-02-08T22:05:00.127Z,101485.41
2023-02-08T22:07:28.877Z,101497.69
2023-02-08T22:09:56.238Z,101474.16
2023-02-08T22:12:23.584Z,101482.13
2023-02-08T22:14:50.888Z,101479.63
2023-02-08T22:17:18.232Z,101477.94
2023-02-08T22:19:45.180Z,101476.25
2023-02-08T22:22:12.453Z,101464.06
2023-02-08T22:24:39.572Z,101455.41
2023-02-08T22:27:06.506Z,101462.53
2023-02-08T22:29:33.820Z,101462.53
2023-02-08T22:32:01.249Z,101457.38
2023-02-08T22:34:28.366Z,101455.00
2023-02-08T22:36:55.385Z,101457.59
2023-02-08T22:39:22.492Z,101456.69
2023-02-08T22:41:49.611Z,101449.84
2023-02-08T22:44:16.791Z,101452.53
2023-02-08T22:46:43.854Z,101447.38
2023-02-08T22:49:10.803Z,101457.94
2023-02-08T22:51:37.962Z,101458.78
2023-02-08T22:54:04.988Z,101456.25
2023-02-08T22:56:32.016Z,101454.63
2023-02-08T22:59:00.386Z,101450.38
2023-02-08T23:01:27.803Z,101458.25
2023-02-08T23:03:54.806Z,101453.19
2023-02-08T23:06:21.970Z,101450.66
2023-02-08T23:08:49.087Z,101453.41
2023-02-08T23:11:16.415Z,101447.31
2023-02-08T23:13:43.313Z,101449.19
2023-02-08T23:16:16.230Z,101450.13
2023-02-08T23:18:43.687Z,101440.63
2023-02-08T23:21:16.998Z,101440.72
2023-02-08T23:23:45.800Z,101442.47
2023-02-08T23:26:18.892Z,101438.25
2023-02-08T23:28:49.060Z,101440.03
2023-02-08T23:31:16.138Z,101435.69
2023-02-08T23:33:43.295Z,101434.19
2023-02-08T23:36:18.491Z,101433.34
2023-02-08T23:38:45.914Z,101429.94
2023-02-08T23:41:18.508Z,101426.53
2023-02-08T23:43:45.905Z,101435.34
2023-02-08T23:46:22.976Z,101444.97
2023-02-08T23:48:50.607Z,101447.69
2023-02-08T23:51:21.395Z,101457.38
2023-02-08T23:53:49.836Z,101457.47
2023-02-08T23:56:29.702Z,101459.22
2023-02-08T23:58:58.994Z,101446.31
